Time;durP1;ratioP1;P1;durP2;ratioP2;P2;SDS_P1;SDS_P2;PMS_P1;PMS_P2;Temp;Humidity;BMP_temperature;BMP_pressure;BME280_temperature;BME280_humidity;BME280_pressure;Samples;Min_cycle;Max_cycle;Signal;HPM_P1;HPM_P2
2023/11/11 00:01:58;;;;;;;2.50;0.90;;;5.70;99.90;;;;;;5007190;28;20030;-79
2023/11/11 00:04:25;;;;;;;3.58;1.30;;;5.60;99.90;;;;;;5008957;28;20048;-79
2023/11/11 00:06:51;;;;;;;4.53;1.40;;;5.60;99.90;;;;;;5017240;28;20076;-80
2023/11/11 00:09:18;;;;;;;4.22;1.20;;;5.50;99.90;;;;;;5007521;28;20593;-79
2023/11/11 00:11:45;;;;;;;3.03;1.60;;;5.50;99.90;;;;;;5011163;28;20034;-80
2023/11/11 00:14:14;;;;;;;3.40;1.48;;;5.50;99.90;;;;;;5013015;28;20037;-84
2023/11/11 00:16:39;;;;;;;2.35;1.30;;;5.50;99.90;;;;;;5007301;28;20035;-83
2023/11/11 00:19:06;;;;;;;2.60;1.05;;;5.40;99.90;;;;;;5012152;28;20221;-84
2023/11/11 00:21:37;;;;;;;1.63;0.90;;;5.50;99.90;;;;;;5021148;28;20033;-82
2023/11/11 00:24:05;;;;;;;5.53;1.30;;;5.50;99.90;;;;;;5014557;28;20453;-83
2023/11/11 00:26:31;;;;;;;2.55;1.30;;;5.40;99.90;;;;;;5012979;28;20411;-84
2023/11/11 00:28:56;;;;;;;2.75;1.15;;;5.40;99.90;;;;;;4995335;28;20068;-84
2023/11/11 00:31:23;;;;;;;2.92;1.48;;;5.40;99.90;;;;;;5018700;28;20494;-82
2023/11/11 00:33:49;;;;;;;2.53;1.35;;;5.40;99.90;;;;;;5017228;28;20620;-82
2023/11/11 00:36:16;;;;;;;1.33;1.10;;;5.40;99.90;;;;;;5015743;28;20057;-81
2023/11/11 00:38:42;;;;;;;6.43;1.20;;;5.30;99.90;;;;;;5015303;28;20038;-83
2023/11/11 00:41:09;;;;;;;3.65;1.40;;;5.30;99.90;;;;;;5011093;28;20589;-84
2023/11/11 00:43:35;;;;;;;2.42;1.17;;;5.30;99.90;;;;;;5000887;28;20034;-83
2023/11/11 00:46:00;;;;;;;3.05;1.13;;;5.30;99.90;;;;;;4993113;28;20491;-82
2023/11/11 00:48:26;;;;;;;1.35;1.20;;;5.30;99.90;;;;;;5012415;28;20689;-83
2023/11/11 00:50:52;;;;;;;9.52;1.80;;;5.30;99.90;;;;;;5002529;28;20026;-81
2023/11/11 00:53:21;;;;;;;4.00;1.35;;;5.30;99.90;;;;;;5008969;28;20387;-82
2023/11/11 00:55:48;;;;;;;2.75;1.17;;;5.20;99.90;;;;;;4994877;28;20052;-79
2023/11/11 00:58:13;;;;;;;1.45;0.93;;;5.20;99.90;;;;;;5011009;28;20394;-84
2023/11/11 01:00:39;;;;;;;2.30;1.30;;;5.20;99.90;;;;;;5011206;28;20044;-82
2023/11/11 01:03:05;;;;;;;2.45;1.30;;;5.20;99.90;;;;;;5012884;28;20038;-81
2023/11/11 01:05:32;;;;;;;2.10;1.30;;;5.10;99.90;;;;;;5012028;28;20030;-84
2023/11/11 01:07:58;;;;;;;1.90;0.80;;;5.10;99.90;;;;;;5015470;28;20430;-81
2023/11/11 01:10:24;;;;;;;2.40;1.17;;;5.00;99.90;;;;;;5012062;28;20073;-80
2023/11/11 01:12:59;;;;;;;1.98;1.30;;;4.90;99.90;;;;;;5015293;28;20172;-81
2023/11/11 01:15:26;;;;;;;2.67;1.20;;;4.90;99.90;;;;;;5000528;28;20070;-79
2023/11/11 01:17:53;;;;;;;5.68;1.30;;;4.90;99.90;;;;;;4994194;28;20431;-80
2023/11/11 01:20:19;;;;;;;4.20;1.25;;;4.90;99.90;;;;;;5013625;28;20502;-83
2023/11/11 01:22:45;;;;;;;2.65;1.13;;;4.80;99.90;;;;;;5012113;28;20250;-81
2023/11/11 01:25:13;;;;;;;2.05;1.00;;;4.80;99.90;;;;;;5003316;28;20030;-84
2023/11/11 01:27:40;;;;;;;1.88;1.20;;;4.70;99.90;;;;;;5007989;28;20038;-81
2023/11/11 01:30:07;;;;;;;1.90;1.15;;;4.70;99.90;;;;;;5013219;28;20029;-84
2023/11/11 01:32:33;;;;;;;3.53;1.17;;;4.70;99.90;;;;;;5012158;28;20089;-83
2023/11/11 01:34:59;;;;;;;1.83;1.25;;;4.60;99.90;;;;;;5013798;28;20098;-83
2023/11/11 01:37:25;;;;;;;2.90;1.48;;;4.60;99.90;;;;;;5011362;28;20069;-81
2023/11/11 01:39:50;;;;;;;1.73;0.85;;;4.50;99.90;;;;;;5016292;28;20076;-81
2023/11/11 01:42:18;;;;;;;4.78;1.77;;;4.50;99.90;;;;;;4990498;28;20120;-82
2023/11/11 01:44:44;;;;;;;3.35;1.40;;;4.50;99.90;;;;;;5006303;28;20057;-81
2023/11/11 01:47:10;;;;;;;2.40;1.48;;;4.40;99.90;;;;;;5007724;28;20053;-81
2023/11/11 01:49:39;;;;;;;1.70;1.25;;;4.40;99.90;;;;;;5009621;28;20034;-82
2023/11/11 01:52:07;;;;;;;4.10;1.40;;;4.40;99.90;;;;;;5010501;28;20048;-82
2023/11/11 01:54:34;;;;;;;3.67;1.58;;;4.40;99.90;;;;;;4999981;28;20584;-82
2023/11/11 01:57:03;;;;;;;3.28;1.40;;;4.40;99.90;;;;;;5004608;28;20508;-83
2023/11/11 01:59:29;;;;;;;1.88;1.60;;;4.40;99.90;;;;;;5003138;28;20034;-82
2023/11/11 02:01:59;;;;;;;2.40;1.40;;;4.50;99.90;;;;;;5006716;28;20038;-81
2023/11/11 02:04:25;;;;;;;2.00;1.52;;;4.50;99.90;;;;;;5000730;28;20037;-82
2023/11/11 02:06:51;;;;;;;1.92;1.23;;;4.50;99.90;;;;;;5006493;28;20034;-81
2023/11/11 02:09:18;;;;;;;2.58;1.42;;;4.60;99.90;;;;;;5005593;28;20606;-82
2023/11/11 02:11:47;;;;;;;3.15;1.45;;;4.60;99.90;;;;;;5016545;28;20022;-82
2023/11/11 02:14:14;;;;;;;3.20;1.65;;;4.60;99.90;;;;;;5009758;28;20033;-81
2023/11/11 02:16:40;;;;;;;2.13;1.50;;;4.60;99.90;;;;;;5007931;28;20018;-81
2023/11/11 02:19:06;;;;;;;3.28;1.63;;;4.60;99.90;;;;;;5009468;28;20038;-82
2023/11/11 02:21:32;;;;;;;5.18;1.65;;;4.60;99.90;;;;;;5000344;28;20570;-82
2023/11/11 02:24:03;;;;;;;6.30;1.88;;;4.60;99.90;;;;;;5009735;28;20038;-82
2023/11/11 02:26:29;;;;;;;3.85;1.33;;;4.70;99.90;;;;;;4976288;28;20040;-82
2023/11/11 02:28:55;;;;;;;4.03;1.17;;;4.70;99.90;;;;;;4987308;28;20038;-81
2023/11/11 02:31:22;;;;;;;2.95;1.67;;;4.70;99.90;;;;;;5007401;28;20305;-81
2023/11/11 02:33:48;;;;;;;2.72;1.67;;;4.70;99.90;;;;;;5006536;28;20638;-81
2023/11/11 02:36:14;;;;;;;3.63;1.75;;;4.70;99.90;;;;;;4994690;28;20041;-81
2023/11/11 02:38:40;;;;;;;2.53;1.55;;;4.70;99.90;;;;;;5011012;28;20048;-81
2023/11/11 02:41:06;;;;;;;2.78;1.50;;;4.70;99.90;;;;;;4993717;28;20061;-82
2023/11/11 02:43:32;;;;;;;3.00;1.45;;;4.70;99.90;;;;;;5014440;28;20061;-83
2023/11/11 02:45:58;;;;;;;2.80;2.17;;;4.80;99.90;;;;;;5019209;28;20057;-83
2023/11/11 02:48:43;;;;;;;4.63;2.15;;;4.80;99.90;;;;;;5007837;28;20057;-82
2023/11/11 02:51:09;;;;;;;3.25;2.60;;;4.80;99.90;;;;;;4995401;28;20526;-82
2023/11/11 02:53:35;;;;;;;4.40;2.35;;;4.70;99.90;;;;;;5002685;28;20403;-83
2023/11/11 02:56:01;;;;;;;4.10;2.20;;;4.60;99.90;;;;;;5017312;28;20225;-82
2023/11/11 02:58:27;;;;;;;4.38;2.65;;;4.60;99.90;;;;;;4998480;28;20061;-83
2023/11/11 03:00:53;;;;;;;4.50;2.35;;;4.60;99.90;;;;;;4998038;28;20025;-81
2023/11/11 03:03:21;;;;;;;5.05;2.42;;;4.60;99.90;;;;;;5013707;28;20057;-81
2023/11/11 03:05:46;;;;;;;2.45;2.00;;;4.50;99.90;;;;;;5015610;28;20029;-81
2023/11/11 03:08:12;;;;;;;4.90;2.00;;;4.50;99.90;;;;;;5013211;28;20127;-83
2023/11/11 03:10:39;;;;;;;3.70;2.15;;;4.60;99.90;;;;;;5016890;28;20038;-83
2023/11/11 03:13:06;;;;;;;3.67;2.40;;;4.60;99.90;;;;;;5011695;28;20030;-81
2023/11/11 03:15:32;;;;;;;4.50;1.85;;;4.60;99.90;;;;;;4997057;28;20038;-83
2023/11/11 03:17:57;;;;;;;7.20;2.15;;;4.60;99.90;;;;;;4989048;28;20037;-82
2023/11/11 03:20:23;;;;;;;3.20;1.90;;;4.60;99.90;;;;;;5008989;28;20045;-82
2023/11/11 03:22:49;;;;;;;5.18;1.90;;;4.60;99.90;;;;;;5008939;28;20034;-82
2023/11/11 03:25:16;;;;;;;2.97;1.90;;;4.60;99.90;;;;;;5008579;28;20038;-85
2023/11/11 03:27:42;;;;;;;4.78;1.90;;;4.70;99.90;;;;;;4989615;28;20041;-83
2023/11/11 03:30:09;;;;;;;3.40;1.58;;;4.70;99.90;;;;;;5008604;28;20036;-84
2023/11/11 03:32:35;;;;;;;2.95;1.52;;;4.70;99.90;;;;;;4999273;28;20029;-83
2023/11/11 03:35:00;;;;;;;2.40;1.80;;;4.70;99.90;;;;;;5010852;28;20022;-85
2023/11/11 03:37:27;;;;;;;4.20;1.83;;;4.70;99.90;;;;;;5010819;28;20407;-83
2023/11/11 03:39:53;;;;;;;2.80;1.50;;;4.70;99.90;;;;;;5011450;28;20045;-83
2023/11/11 03:42:19;;;;;;;2.47;1.60;;;4.70;99.90;;;;;;5011035;28;20042;-83
2023/11/11 03:44:45;;;;;;;3.45;2.03;;;4.80;99.90;;;;;;4998089;28;20184;-82
2023/11/11 03:47:11;;;;;;;3.53;2.10;;;4.80;99.90;;;;;;4995014;28;20039;-83
2023/11/11 03:49:38;;;;;;;2.97;2.00;;;4.80;99.90;;;;;;5006964;28;20045;-85
2023/11/11 03:52:04;;;;;;;2.03;1.83;;;4.80;99.90;;;;;;5016168;28;20052;-82
2023/11/11 03:54:30;;;;;;;4.05;2.28;;;4.80;99.90;;;;;;5012255;28;20390;-81
2023/11/11 03:56:57;;;;;;;8.52;2.38;;;4.90;99.90;;;;;;4992433;28;20057;-84
2023/11/11 03:59:22;;;;;;;4.22;2.50;;;4.90;99.90;;;;;;5019805;28;20034;-82
2023/11/11 04:01:51;;;;;;;2.42;2.00;;;4.90;99.90;;;;;;5010484;28;20097;-82
2023/11/11 04:04:17;;;;;;;3.78;2.00;;;4.90;99.90;;;;;;5012395;28;20068;-83
2023/11/11 04:06:43;;;;;;;2.65;2.08;;;4.90;99.90;;;;;;5012629;28;20089;-84
2023/11/11 04:09:09;;;;;;;2.30;1.95;;;4.90;99.90;;;;;;5012344;28;20044;-82
2023/11/11 04:11:35;;;;;;;1.73;1.33;;;4.90;99.90;;;;;;5014188;28;20540;-84
2023/11/11 04:14:02;;;;;;;2.10;1.60;;;4.90;99.90;;;;;;4998628;28;20026;-84
2023/11/11 04:16:29;;;;;;;2.90;1.60;;;4.90;99.90;;;;;;4993424;28;20567;-82
2023/11/11 04:18:56;;;;;;;1.50;1.40;;;4.90;99.90;;;;;;5014904;28;20029;-83
2023/11/11 04:21:23;;;;;;;1.60;1.50;;;4.90;99.90;;;;;;5006252;28;20034;-84
2023/11/11 04:23:49;;;;;;;2.58;1.50;;;4.90;99.90;;;;;;4995921;28;20115;-83
2023/11/11 04:26:15;;;;;;;2.60;1.67;;;4.90;99.90;;;;;;5016448;28;20042;-80
2023/11/11 04:28:43;;;;;;;1.77;0.90;;;4.90;99.90;;;;;;5008619;28;20034;-85
2023/11/11 04:31:17;;;;;;;4.15;1.20;;;4.90;99.90;;;;;;5002970;28;20055;-83
2023/11/11 04:33:43;;;;;;;3.55;1.27;;;4.90;99.90;;;;;;5008225;28;20022;-83
2023/11/11 04:36:09;;;;;;;1.60;1.50;;;5.00;99.90;;;;;;5015629;28;20025;-83
2023/11/11 04:38:37;;;;;;;2.20;1.55;;;5.00;99.90;;;;;;5009978;28;20414;-82
2023/11/11 04:41:04;;;;;;;1.52;1.20;;;5.00;99.90;;;;;;5012590;28;20239;-82
2023/11/11 04:43:34;;;;;;;3.70;1.60;;;5.00;99.90;;;;;;5009053;28;20053;-80
2023/11/11 04:46:01;;;;;;;2.80;1.40;;;5.00;99.90;;;;;;5010170;28;20066;-81
2023/11/11 04:48:27;;;;;;;2.42;1.50;;;5.00;99.90;;;;;;5015887;28;20439;-79
2023/11/11 04:50:53;;;;;;;3.58;1.30;;;5.00;99.90;;;;;;4999636;28;20042;-81
2023/11/11 04:53:19;;;;;;;2.38;1.40;;;5.00;99.90;;;;;;5011696;28;20040;-81
2023/11/11 04:55:47;;;;;;;1.98;1.20;;;4.90;99.90;;;;;;5016492;28;20051;-80
2023/11/11 04:58:16;;;;;;;1.85;1.25;;;4.90;99.90;;;;;;5012632;28;20076;-82
2023/11/11 05:00:41;;;;;;;1.20;1.00;;;4.80;99.90;;;;;;5014033;28;20034;-80
2023/11/11 05:03:07;;;;;;;2.30;1.02;;;4.70;99.90;;;;;;5008985;28;20030;-79
2023/11/11 05:05:33;;;;;;;1.58;1.33;;;4.60;99.90;;;;;;5006940;28;20022;-80
2023/11/11 05:07:59;;;;;;;1.95;1.40;;;4.50;99.90;;;;;;5010521;28;20507;-80
2023/11/11 05:10:26;;;;;;;1.60;1.17;;;4.50;99.90;;;;;;5010686;28;20297;-81
2023/11/11 05:12:53;;;;;;;2.00;1.52;;;4.50;99.90;;;;;;5013732;28;20030;-81
2023/11/11 05:15:20;;;;;;;4.65;1.70;;;4.40;99.90;;;;;;5004211;28;20027;-81
2023/11/11 05:17:46;;;;;;;2.15;1.58;;;4.40;99.90;;;;;;5015467;28;20056;-80
2023/11/11 05:20:14;;;;;;;3.13;1.63;;;4.40;99.90;;;;;;5010674;28;20026;-79
2023/11/11 05:22:43;;;;;;;1.98;1.77;;;4.40;99.90;;;;;;5014859;28;20046;-80
2023/11/11 05:25:12;;;;;;;3.15;1.65;;;4.50;99.90;;;;;;5006597;28;20033;-80
2023/11/11 05:27:39;;;;;;;3.53;1.67;;;4.50;99.90;;;;;;5014022;28;20022;-83
2023/11/11 05:30:06;;;;;;;3.75;2.38;;;4.50;99.90;;;;;;5016076;28;20026;-78
2023/11/11 05:32:32;;;;;;;2.20;2.00;;;4.50;99.90;;;;;;5015593;28;20034;-82
2023/11/11 05:34:58;;;;;;;2.63;2.15;;;4.50;99.90;;;;;;5015028;28;20029;-81
2023/11/11 05:37:24;;;;;;;3.28;2.47;;;4.60;99.90;;;;;;5015620;28;20045;-79
2023/11/11 05:39:50;;;;;;;3.10;2.45;;;4.60;99.90;;;;;;5011120;28;20034;-81
2023/11/11 05:42:16;;;;;;;4.45;2.42;;;4.50;99.90;;;;;;5006680;28;20091;-79
2023/11/11 05:44:42;;;;;;;3.72;2.58;;;4.60;99.90;;;;;;5008674;28;20528;-80
2023/11/11 05:47:11;;;;;;;3.85;2.63;;;4.60;99.90;;;;;;5012027;28;20033;-81
2023/11/11 05:49:40;;;;;;;4.18;2.40;;;4.60;99.90;;;;;;5010258;28;20383;-80
2023/11/11 05:52:06;;;;;;;4.22;2.30;;;4.60;99.90;;;;;;5011684;28;20025;-82
2023/11/11 05:54:32;;;;;;;2.28;2.08;;;4.60;99.90;;;;;;5012200;28;20556;-82
2023/11/11 05:56:58;;;;;;;2.85;1.98;;;4.60;99.90;;;;;;5013915;28;20402;-83
2023/11/11 05:59:24;;;;;;;3.38;2.30;;;4.60;99.90;;;;;;5017129;28;20030;-81
2023/11/11 06:01:51;;;;;;;3.60;2.58;;;4.70;99.90;;;;;;5012456;28;20033;-81
2023/11/11 06:04:16;;;;;;;3.00;2.50;;;4.70;99.90;;;;;;5014597;28;20395;-81
2023/11/11 06:06:42;;;;;;;2.65;2.10;;;4.70;99.90;;;;;;5014081;28;20029;-82
2023/11/11 06:09:19;;;;;;;4.45;2.35;;;4.80;99.90;;;;;;5011580;28;20053;-81
2023/11/11 06:11:47;;;;;;;2.55;2.30;;;4.80;99.90;;;;;;5017315;28;20037;-81
2023/11/11 06:14:17;;;;;;;3.47;2.40;;;4.80;99.90;;;;;;5019734;28;20440;-82
2023/11/11 06:16:44;;;;;;;3.60;2.88;;;4.90;99.90;;;;;;5018528;28;20069;-82
2023/11/11 06:19:10;;;;;;;4.68;3.30;;;4.90;99.90;;;;;;5017006;28;20101;-81
2023/11/11 06:21:36;;;;;;;2.97;2.67;;;4.90;99.90;;;;;;5013659;28;20034;-83
2023/11/11 06:24:04;;;;;;;3.67;2.47;;;4.90;99.90;;;;;;4998794;28;20367;-83
2023/11/11 06:26:30;;;;;;;3.63;2.58;;;4.90;99.90;;;;;;5010773;28;20038;-81
2023/11/11 06:28:56;;;;;;;3.20;2.90;;;5.00;99.90;;;;;;5015622;28;20121;-82
2023/11/11 06:31:26;;;;;;;2.97;2.67;;;5.00;99.90;;;;;;5010133;28;20105;-81
2023/11/11 06:33:53;;;;;;;3.65;2.50;;;5.00;99.90;;;;;;5016913;28;20639;-82
2023/11/11 06:36:18;;;;;;;2.63;2.42;;;5.00;99.90;;;;;;5012769;28;20042;-81
2023/11/11 06:38:45;;;;;;;3.35;2.50;;;5.10;99.90;;;;;;5012393;28;20117;-81
2023/11/11 06:41:11;;;;;;;2.47;2.28;;;5.10;99.90;;;;;;5007986;28;20076;-81
2023/11/11 06:43:37;;;;;;;3.35;2.53;;;5.10;99.90;;;;;;5015236;28;20109;-80
2023/11/11 06:46:06;;;;;;;4.93;2.45;;;5.10;99.90;;;;;;5012119;28;20037;-80
2023/11/11 06:48:33;;;;;;;3.20;1.80;;;5.10;99.90;;;;;;5010945;28;20053;-81
2023/11/11 06:50:59;;;;;;;3.92;2.00;;;5.10;99.90;;;;;;5005558;28;20454;-83
2023/11/11 06:53:24;;;;;;;1.55;1.45;;;5.10;99.90;;;;;;5008601;28;20029;-81
2023/11/11 06:55:51;;;;;;;2.75;1.63;;;5.10;99.90;;;;;;5013822;28;20083;-82
2023/11/11 06:58:17;;;;;;;2.40;1.90;;;5.10;99.90;;;;;;5001622;28;20026;-83
2023/11/11 07:00:44;;;;;;;2.95;1.50;;;5.10;99.90;;;;;;5006756;28;20384;-83
2023/11/11 07:03:10;;;;;;;3.97;1.52;;;5.10;99.90;;;;;;5009130;28;20022;-81
2023/11/11 07:05:36;;;;;;;2.72;1.40;;;5.10;99.90;;;;;;5007316;28;20014;-80
2023/11/11 07:08:05;;;;;;;7.93;1.30;;;5.20;99.90;;;;;;5014999;28;20037;-82
2023/11/11 07:10:34;;;;;;;1.52;0.95;;;5.20;99.90;;;;;;4992865;28;20056;-82
2023/11/11 07:13:01;;;;;;;2.35;0.80;;;5.20;99.90;;;;;;5015983;28;20022;-82
2023/11/11 07:15:28;;;;;;;2.22;0.85;;;5.20;99.90;;;;;;5018718;28;20474;-80
2023/11/11 07:17:54;;;;;;;2.05;0.80;;;5.20;99.90;;;;;;5018501;28;20040;-82
2023/11/11 07:20:21;;;;;;;4.55;0.95;;;5.10;99.90;;;;;;5012560;28;20419;-79
2023/11/11 07:22:55;;;;;;;0.60;0.40;;;5.20;99.90;;;;;;5016209;28;20034;-80
2023/11/11 07:25:23;;;;;;;1.92;0.70;;;5.20;99.90;;;;;;5013942;28;20801;-82
2023/11/11 07:27:52;;;;;;;2.10;0.50;;;5.20;99.90;;;;;;5017758;28;20043;-80
2023/11/11 07:30:18;;;;;;;0.73;0.50;;;5.20;99.90;;;;;;5014702;28;20044;-81
2023/11/11 07:32:44;;;;;;;0.40;0.40;;;5.20;99.90;;;;;;5016255;28;20097;-81
2023/11/11 07:35:14;;;;;;;8.73;0.75;;;5.20;99.90;;;;;;5019643;28;20570;-81
2023/11/11 07:37:46;;;;;;;0.85;0.43;;;5.20;99.90;;;;;;5012680;28;20046;-84
2023/11/11 07:40:14;;;;;;;2.05;0.40;;;5.20;99.90;;;;;;5009330;28;20095;-81
2023/11/11 07:42:41;;;;;;;3.60;0.32;;;5.10;99.90;;;;;;5012449;28;20088;-82
2023/11/11 07:45:07;;;;;;;17.85;1.02;;;5.10;99.90;;;;;;4980978;28;20037;-79
2023/11/11 07:47:32;;;;;;;2.45;0.60;;;5.10;99.90;;;;;;5008184;28;20032;-80
2023/11/11 07:49:58;;;;;;;4.10;0.65;;;5.10;99.90;;;;;;4996494;28;20026;-81
2023/11/11 07:52:25;;;;;;;0.30;0.30;;;5.10;99.90;;;;;;5010039;28;20096;-81
2023/11/11 07:54:50;;;;;;;1.05;0.35;;;5.10;99.90;;;;;;5004357;28;20038;-82
2023/11/11 07:57:17;;;;;;;0.45;0.30;;;5.10;99.90;;;;;;5006919;28;20034;-82
2023/11/11 07:59:43;;;;;;;1.05;0.50;;;5.10;99.90;;;;;;5005387;28;20038;-82
2023/11/11 08:02:14;;;;;;;1.33;0.35;;;5.00;99.90;;;;;;5009124;28;20030;-79
2023/11/11 08:04:40;;;;;;;0.30;0.30;;;5.00;99.90;;;;;;5011879;28;20038;-80
2023/11/11 08:07:09;;;;;;;0.40;0.28;;;5.00;99.90;;;;;;5003030;28;20032;-83
2023/11/11 08:09:35;;;;;;;0.30;0.30;;;4.90;99.90;;;;;;5007715;28;20030;-82
2023/11/11 08:12:01;;;;;;;0.35;0.35;;;4.90;99.90;;;;;;5014152;28;20063;-80
2023/11/11 08:14:28;;;;;;;0.32;0.32;;;5.00;99.90;;;;;;5012985;28;20054;-78
2023/11/11 08:16:54;;;;;;;1.60;0.30;;;4.90;99.90;;;;;;5006267;28;20027;-81
2023/11/11 08:19:20;;;;;;;3.60;0.30;;;4.90;99.90;;;;;;5009849;28;20136;-82
2023/11/11 08:21:46;;;;;;;0.30;0.20;;;4.90;99.90;;;;;;5004147;28;20036;-80
2023/11/11 08:24:12;;;;;;;0.88;0.88;;;4.90;99.90;;;;;;5006240;28;21689;-79
2023/11/11 08:26:38;;;;;;;0.30;0.30;;;4.90;99.90;;;;;;5013456;28;20038;-81
2023/11/11 08:29:04;;;;;;;0.10;0.10;;;4.90;99.90;;;;;;5006100;28;20398;-82
2023/11/11 08:31:30;;;;;;;0.40;0.30;;;4.90;99.90;;;;;;5009559;28;20030;-81
2023/11/11 08:33:56;;;;;;;0.20;0.20;;;4.90;99.90;;;;;;5005407;28;20081;-80
2023/11/11 08:36:24;;;;;;;2.63;0.20;;;4.90;99.90;;;;;;5004743;28;20697;-81
2023/11/11 08:38:50;;;;;;;0.35;0.30;;;5.00;99.90;;;;;;5008222;28;20042;-81
2023/11/11 08:41:19;;;;;;;0.28;0.20;;;5.00;99.90;;;;;;5010697;28;20076;-80
2023/11/11 08:43:46;;;;;;;1.67;0.30;;;5.00;99.90;;;;;;5011912;28;20477;-82
2023/11/11 08:46:12;;;;;;;1.33;0.10;;;5.00;99.90;;;;;;4996064;28;20069;-82
2023/11/11 08:48:40;;;;;;;0.10;0.10;;;5.00;99.90;;;;;;5012951;28;20049;-80
2023/11/11 08:51:08;;;;;;;0.30;0.28;;;5.00;99.90;;;;;;5016490;28;20031;-82
2023/11/11 08:53:34;;;;;;;1.92;0.28;;;5.10;99.90;;;;;;5013315;28;20522;-80
2023/11/11 08:56:00;;;;;;;1.10;0.20;;;5.10;99.90;;;;;;5018711;28;20044;-78
2023/11/11 08:58:25;;;;;;;0.47;0.40;;;5.10;99.90;;;;;;5002519;28;20037;-79
2023/11/11 09:00:51;;;;;;;0.35;0.30;;;5.20;99.90;;;;;;5014215;28;20410;-81
2023/11/11 09:03:17;;;;;;;0.47;0.40;;;5.20;99.90;;;;;;5017638;28;20022;-80
2023/11/11 09:05:43;;;;;;;1.25;0.90;;;5.20;99.90;;;;;;5013333;28;20030;-81
2023/11/11 09:08:09;;;;;;;0.70;0.70;;;5.20;99.90;;;;;;5014000;28;20109;-80
2023/11/11 09:10:36;;;;;;;1.63;1.40;;;5.20;99.90;;;;;;5011943;28;20034;-81
2023/11/11 09:13:03;;;;;;;5.30;1.50;;;5.30;99.90;;;;;;5007800;28;20590;-82
2023/11/11 09:15:28;;;;;;;1.75;1.23;;;5.30;99.90;;;;;;5007380;28;20088;-82
2023/11/11 09:17:54;;;;;;;3.38;1.48;;;5.30;99.90;;;;;;5006267;28;20026;-80
2023/11/11 09:20:22;;;;;;;1.98;1.55;;;5.30;99.90;;;;;;5007502;28;20376;-81
2023/11/11 09:22:49;;;;;;;9.23;1.48;;;5.20;99.90;;;;;;5006664;28;20057;-82
2023/11/11 09:25:15;;;;;;;2.03;1.70;;;5.30;99.90;;;;;;5009556;28;20122;-81
2023/11/11 09:27:41;;;;;;;3.67;1.80;;;5.40;99.90;;;;;;5003706;28;20037;-80
2023/11/11 09:30:08;;;;;;;4.43;2.30;;;5.40;99.90;;;;;;5011117;28;20036;-83
2023/11/11 09:32:34;;;;;;;5.07;2.00;;;5.40;99.90;;;;;;5009151;28;20030;-81
2023/11/11 09:35:00;;;;;;;8.30;2.30;;;5.40;99.90;;;;;;5006212;28;20030;-81
2023/11/11 09:37:26;;;;;;;4.93;2.45;;;5.50;99.90;;;;;;5005565;28;20052;-82
2023/11/11 09:39:52;;;;;;;3.25;2.70;;;5.50;99.90;;;;;;5008446;28;20034;-83
2023/11/11 09:42:18;;;;;;;4.88;2.70;;;5.50;99.90;;;;;;5002742;28;20399;-84
2023/11/11 09:44:44;;;;;;;4.93;3.00;;;5.60;99.90;;;;;;5009216;28;20030;-84
2023/11/11 09:47:14;;;;;;;3.85;2.92;;;5.60;99.90;;;;;;5005438;28;20025;-83
2023/11/11 09:49:40;;;;;;;3.72;2.90;;;5.60;99.90;;;;;;5010696;28;20045;-81
2023/11/11 09:52:11;;;;;;;6.97;3.47;;;5.70;99.90;;;;;;5007615;28;20022;-83
2023/11/11 09:54:40;;;;;;;5.32;3.22;;;5.60;99.90;;;;;;5003763;28;20034;-83
2023/11/11 09:57:10;;;;;;;5.65;3.42;;;5.70;99.90;;;;;;5008220;28;20450;-81
2023/11/11 09:59:36;;;;;;;8.10;4.20;;;5.70;99.90;;;;;;5004370;28;20069;-83
2023/11/11 10:02:02;;;;;;;5.97;3.25;;;5.80;99.90;;;;;;5006945;28;20712;-83
2023/11/11 10:04:28;;;;;;;6.18;3.25;;;5.70;99.90;;;;;;5011245;28;20581;-80
2023/11/11 10:06:56;;;;;;;5.30;3.97;;;5.80;99.90;;;;;;5005293;28;20030;-80
2023/11/11 10:09:23;;;;;;;4.80;4.03;;;5.90;99.90;;;;;;4993614;28;20384;-77
2023/11/11 10:11:51;;;;;;;4.95;3.63;;;6.00;99.90;;;;;;5011439;28;20037;-79
2023/11/11 10:14:21;;;;;;;7.03;3.83;;;6.00;99.90;;;;;;5008549;28;20041;-81
2023/11/11 10:16:52;;;;;;;8.93;3.85;;;6.10;99.90;;;;;;5007546;28;20457;-81
2023/11/11 10:19:18;;;;;;;6.03;3.90;;;6.20;99.90;;;;;;5014550;28;20053;-77
2023/11/11 10:21:44;;;;;;;5.40;4.03;;;6.20;99.90;;;;;;5010381;28;20109;-79
2023/11/11 10:24:10;;;;;;;6.90;4.20;;;6.30;99.90;;;;;;5007782;28;20462;-80
2023/11/11 10:26:39;;;;;;;4.18;3.63;;;6.30;99.90;;;;;;5010553;28;20107;-80
2023/11/11 10:29:08;;;;;;;7.00;3.75;;;6.30;99.90;;;;;;5010254;28;20026;-80
2023/11/11 10:31:36;;;;;;;7.82;4.82;;;6.40;99.90;;;;;;5009082;28;20129;-80
2023/11/11 10:34:02;;;;;;;5.63;3.90;;;6.40;99.90;;;;;;5004077;28;20026;-80
2023/11/11 10:36:37;;;;;;;6.25;3.70;;;6.40;99.90;;;;;;5006465;28;20300;-81
2023/11/11 10:39:04;;;;;;;6.22;3.83;;;6.40;99.90;;;;;;5006898;28;20037;-83
2023/11/11 10:41:30;;;;;;;5.75;4.13;;;6.40;99.90;;;;;;4988997;28;20057;-79
2023/11/11 10:43:56;;;;;;;5.38;4.00;;;6.40;99.90;;;;;;5012397;28;20022;-81
2023/11/11 10:46:22;;;;;;;5.65;4.18;;;6.40;99.90;;;;;;5006862;28;20607;-79
2023/11/11 10:48:49;;;;;;;3.28;2.92;;;6.50;99.90;;;;;;5008465;28;20038;-81
2023/11/11 10:51:15;;;;;;;4.00;3.22;;;6.60;99.90;;;;;;5010466;28;20033;-81
2023/11/11 10:53:47;;;;;;;6.55;2.92;;;6.60;99.90;;;;;;5006644;28;20076;-79
2023/11/11 10:56:13;;;;;;;2.72;2.50;;;6.60;99.90;;;;;;5007155;28;20061;-79
2023/11/11 10:58:40;;;;;;;3.65;2.10;;;6.50;99.90;;;;;;5006665;28;20037;-78
2023/11/11 11:01:07;;;;;;;5.47;2.20;;;6.40;99.90;;;;;;5005436;28;20044;-78
2023/11/11 11:03:34;;;;;;;3.95;2.25;;;6.40;99.90;;;;;;5002358;28;20077;-79
2023/11/11 11:06:24;;;;;;;2.15;1.90;;;6.40;99.90;;;;;;5007409;28;20073;-78
2023/11/11 11:08:49;;;;;;;7.80;3.67;;;6.40;99.90;;;;;;5005452;28;20030;-80
2023/11/11 11:11:40;;;;;;;3.13;2.05;;;6.30;99.90;;;;;;5009728;28;20636;-78
2023/11/11 11:14:19;;;;;;;6.00;2.38;;;6.40;99.90;;;;;;5002923;28;20081;-77
2023/11/11 11:16:45;;;;;;;4.05;1.88;;;6.40;99.90;;;;;;5004792;28;20029;-78
2023/11/11 11:19:15;;;;;;;2.10;1.90;;;6.50;99.90;;;;;;5007441;28;20049;-79
2023/11/11 11:21:41;;;;;;;3.47;1.80;;;6.50;99.90;;;;;;5007788;28;20041;-78
2023/11/11 11:24:14;;;;;;;3.33;1.67;;;6.60;99.90;;;;;;5004878;28;20034;-78
2023/11/11 11:26:40;;;;;;;2.30;1.90;;;6.60;99.90;;;;;;5003651;28;20068;-79
2023/11/11 11:29:22;;;;;;;2.85;1.50;;;6.50;99.90;;;;;;4988586;28;20054;-77
2023/11/11 11:32:07;;;;;;;1.40;1.08;;;6.60;99.90;;;;;;5005912;28;20041;-78
2023/11/11 11:34:41;;;;;;;1.83;1.10;;;6.50;99.90;;;;;;4998904;28;20052;-77
2023/11/11 11:37:13;;;;;;;2.00;1.02;;;6.40;99.90;;;;;;4998691;28;20034;-78
2023/11/11 11:40:03;;;;;;;0.93;0.93;;;6.40;99.90;;;;;;5001750;28;20234;-79
2023/11/11 11:42:30;;;;;;;2.28;1.13;;;6.40;99.90;;;;;;5001344;28;20034;-80
2023/11/11 11:44:57;;;;;;;0.95;0.85;;;6.40;99.90;;;;;;4993476;28;20034;-79
2023/11/11 11:47:24;;;;;;;0.90;0.90;;;6.40;99.90;;;;;;5006051;28;20181;-79
2023/11/11 11:49:50;;;;;;;1.15;1.05;;;6.40;99.90;;;;;;5001677;28;20029;-82
2023/11/11 11:52:19;;;;;;;2.75;1.02;;;6.40;99.90;;;;;;4981976;28;20033;-79
2023/11/11 11:54:46;;;;;;;2.63;1.20;;;6.40;99.90;;;;;;4999945;28;20069;-79
2023/11/11 11:57:14;;;;;;;1.60;0.85;;;6.40;99.90;;;;;;5010221;28;20088;-79
2023/11/11 11:59:41;;;;;;;0.70;0.70;;;6.50;99.90;;;;;;5009672;28;20038;-79
2023/11/11 12:02:13;;;;;;;1.90;1.20;;;6.40;99.90;;;;;;5016013;28;20091;-79
2023/11/11 12:04:39;;;;;;;2.33;1.17;;;6.40;99.90;;;;;;5009412;28;20101;-80
2023/11/11 12:07:09;;;;;;;1.15;1.05;;;6.30;99.90;;;;;;5010279;28;20060;-80
2023/11/11 12:09:35;;;;;;;1.25;1.10;;;6.40;99.90;;;;;;5008590;28;20034;-80
2023/11/11 12:12:06;;;;;;;2.00;1.10;;;6.40;99.90;;;;;;5004192;28;20034;-79
2023/11/11 12:14:32;;;;;;;1.80;1.20;;;6.30;99.90;;;;;;5006145;28;20783;-79
2023/11/11 12:16:58;;;;;;;1.75;1.20;;;6.30;99.90;;;;;;5011261;28;20065;-78
2023/11/11 12:19:27;;;;;;;1.95;1.10;;;6.40;99.90;;;;;;5008157;28;20038;-80
2023/11/11 12:21:53;;;;;;;1.83;1.27;;;6.40;99.90;;;;;;5006135;28;20041;-78
2023/11/11 12:24:26;;;;;;;1.38;1.27;;;6.40;99.90;;;;;;5012778;28;20532;-81
2023/11/11 12:26:58;;;;;;;2.30;1.10;;;6.40;99.90;;;;;;5008393;28;20042;-80
2023/11/11 12:29:24;;;;;;;3.45;1.33;;;6.40;99.90;;;;;;5011322;28;20112;-78
2023/11/11 12:31:54;;;;;;;4.13;1.35;;;6.40;99.90;;;;;;5003207;28;20034;-79
2023/11/11 12:34:28;;;;;;;2.17;1.25;;;6.40;99.90;;;;;;5008943;28;20033;-77
2023/11/11 12:36:55;;;;;;;2.95;1.52;;;6.30;99.90;;;;;;5009293;28;20030;-79
2023/11/11 12:39:22;;;;;;;4.50;1.77;;;6.30;99.90;;;;;;5005362;28;20675;-79
2023/11/11 12:41:52;;;;;;;2.35;1.40;;;6.30;99.90;;;;;;5005442;28;20767;-79
2023/11/11 12:44:19;;;;;;;4.15;1.52;;;6.20;99.90;;;;;;5008810;28;20034;-79
2023/11/11 12:46:46;;;;;;;4.82;1.63;;;6.30;99.90;;;;;;5002575;28;20065;-82
2023/11/11 12:49:14;;;;;;;1.83;1.70;;;6.30;99.90;;;;;;5000130;28;20129;-79
2023/11/11 12:51:43;;;;;;;2.30;2.10;;;6.30;99.90;;;;;;5005770;28;20034;-79
2023/11/11 12:54:11;;;;;;;2.60;1.60;;;6.30;99.90;;;;;;5002526;28;20037;-78
2023/11/11 12:56:52;;;;;;;2.30;2.10;;;6.30;99.90;;;;;;5005849;28;20398;-79
2023/11/11 12:59:20;;;;;;;8.10;3.15;;;6.40;99.90;;;;;;5000246;28;20038;-78